Glenarm, Illinois
Current Conditions -  °F | °C
As of 2:59 PM on Sunday 21 Dec 2014 (Local Time) from KSPI Reporting Station
Overcast Overcast  
Wind Chill: 32°   Ceiling: 3200
Heat Index: 40°   Visibility: 10mi
Dew Point: 31°   Wind: 14mph
Humidity: 70%   Direction: 160°SSE
Pressure: 30.06"   Gusts: NA
Location:  39.62°N, 89.65°W
Report Text: KSPI 212059Z 16012KT 10SM OVC032 04/M01 A3006 RMK AO2 T00441006
Loading
Personal Weather Stations






























Interactive Weather Map New forecast layout! Learn more

10-Day Weather Forecast

Advertisements
Track Severe Weather on mobile